Time;durP1;ratioP1;P1;durP2;ratioP2;P2;SDS_P1;SDS_P2;PMS_P1;PMS_P2;Temp;Humidity;BMP_temperature;BMP_pressure;BME280_temperature;BME280_humidity;BME280_pressure;Samples;Min_cycle;Max_cycle;Signal;HPM_P1;HPM_P2
2022/01/04 00:00:25;;;;;;;3.73;2.70;;;;;;;6.31;87.67;98988.81;5094923;28;20228;-67
2022/01/04 00:02:52;;;;;;;8.07;2.93;;;;;;;6.35;87.49;98988.59;5094775;28;20718;-58
2022/01/04 00:05:19;;;;;;;3.97;2.80;;;;;;;6.28;87.73;98981.38;5094835;28;20678;-68
2022/01/04 00:07:46;;;;;;;6.03;2.53;;;;;;;6.20;88.16;98981.03;5094798;28;20580;-59
2022/01/04 00:10:20;;;;;;;4.83;2.67;;;;;;;6.22;88.38;98984.28;5094616;28;20205;-68
2022/01/04 00:15:32;;;;;;;4.13;2.70;;;;;;;6.22;88.22;98994.44;5094710;28;20201;-59
2022/01/04 00:17:59;;;;;;;4.40;2.67;;;;;;;6.16;88.34;99003.19;5094465;28;20679;-68
2022/01/04 00:20:26;;;;;;;4.13;2.67;;;;;;;6.18;88.11;99005.66;5094751;28;20206;-68
2022/01/04 00:22:53;;;;;;;4.40;2.63;;;;;;;6.18;87.82;99008.22;5094552;28;20198;-59
2022/01/04 00:25:19;;;;;;;3.93;2.47;;;;;;;6.33;87.23;99014.97;5094309;28;20229;-59
2022/01/04 00:27:46;;;;;;;3.27;2.40;;;;;;;6.30;87.25;99018.47;5094368;28;20213;-59
2022/01/04 00:30:13;;;;;;;5.87;2.70;;;;;;;6.28;87.46;99024.56;5094278;28;20213;-67
2022/01/04 00:32:42;;;;;;;3.97;2.40;;;;;;;6.31;87.15;99019.28;5094314;28;20217;-59
2022/01/04 00:35:10;;;;;;;4.37;2.53;;;;;;;6.30;87.34;99017.66;5094313;28;20205;-67
2022/01/04 00:37:36;;;;;;;5.93;2.60;;;;;;;6.33;87.24;99013.22;5094059;28;20226;-68
2022/01/04 00:40:04;;;;;;;4.77;2.47;;;;;;;6.33;87.15;99022.56;5094062;28;20722;-59
2022/01/04 00:42:31;;;;;;;5.63;2.60;;;;;;;6.28;86.88;99024.56;5093941;28;20222;-67
2022/01/04 00:44:58;;;;;;;5.07;2.57;;;;;;;6.25;87.01;99024.72;5094108;28;20233;-68
2022/01/04 00:47:39;;;;;;;3.87;2.57;;;;;;;6.28;86.93;99029.63;5093984;28;20611;-67
2022/01/04 00:50:07;;;;;;;5.03;2.63;;;;;;;6.35;86.73;99028.41;5093898;28;20193;-68
2022/01/04 00:52:34;;;;;;;5.30;2.70;;;;;;;6.35;86.71;99029.22;5093824;28;20226;-59
2022/01/04 00:55:01;;;;;;;5.10;2.90;;;;;;;6.42;86.08;99036.47;5093918;28;20202;-67
2022/01/04 00:57:28;;;;;;;5.87;2.80;;;;;;;6.48;86.09;99036.94;5093907;28;20225;-67
2022/01/04 00:59:55;;;;;;;4.13;2.67;;;;;;;6.46;86.02;99028.63;5093776;28;20202;-66
2022/01/04 01:02:21;;;;;;;5.80;2.53;;;;;;;6.46;86.07;99031.16;5093853;28;20722;-68
2022/01/04 01:04:48;;;;;;;4.60;2.80;;;;;;;6.40;86.09;99031.50;5093559;28;20229;-59
2022/01/04 01:07:16;;;;;;;4.93;2.50;;;;;;;6.38;86.34;99025.69;5093509;28;20226;-58
2022/01/04 01:09:57;;;;;;;4.40;2.60;;;;;;;6.35;86.26;99023.31;5092305;28;20206;-59
2022/01/04 01:12:24;;;;;;;4.53;2.73;;;;;;;6.43;85.93;99013.56;5093969;28;20225;-67
2022/01/04 01:14:51;;;;;;;5.47;2.53;;;;;;;6.40;86.30;99011.19;5093701;28;20198;-67
2022/01/04 01:17:18;;;;;;;5.17;2.70;;;;;;;6.44;85.76;99015.19;5093289;28;20221;-59
2022/01/04 01:19:45;;;;;;;4.30;2.37;;;;;;;6.39;86.11;99017.16;5093623;28;20606;-59
2022/01/04 01:22:12;;;;;;;6.63;2.37;;;;;;;6.34;86.14;99019.13;5093529;28;20214;-67
2022/01/04 01:24:40;;;;;;;4.60;2.60;;;;;;;6.32;86.30;99026.03;5093070;28;20229;-68
2022/01/04 01:27:07;;;;;;;4.17;2.70;;;;;;;6.27;86.23;99038.97;5093153;28;20589;-59
2022/01/04 01:29:34;;;;;;;5.63;2.90;;;;;;;6.27;86.18;99033.88;5093309;28;20198;-67
2022/01/04 01:32:01;;;;;;;5.63;2.53;;;;;;;6.35;86.07;99030.94;5092832;28;20623;-58
2022/01/04 01:34:27;;;;;;;4.37;2.50;;;;;;;6.41;85.69;99030.59;5093152;28;20198;-58
2022/01/04 01:36:54;;;;;;;7.00;3.40;;;;;;;6.45;85.41;99024.44;5093061;28;20218;-59
2022/01/04 01:39:21;;;;;;;5.60;3.00;;;;;;;6.46;85.32;99008.31;5093192;28;20194;-67
2022/01/04 01:41:49;;;;;;;4.80;3.10;;;;;;;6.47;85.37;99025.16;5093412;28;20229;-67
2022/01/04 01:44:16;;;;;;;6.13;3.27;;;;;;;6.52;84.78;99027.47;5092703;28;20229;-68
2022/01/04 01:46:43;;;;;;;6.83;3.07;;;;;;;6.51;85.25;99025.81;5092936;28;20233;-59
2022/01/04 01:49:10;;;;;;;5.30;2.90;;;;;;;6.53;85.21;99018.91;5092722;28;20603;-59
2022/01/04 01:51:37;;;;;;;9.43;3.07;;;;;;;6.55;85.10;99014.59;5092927;28;20769;-59
2022/01/04 01:54:03;;;;;;;6.27;3.40;;;;;;;6.50;84.78;99007.22;5092663;28;20205;-67
2022/01/04 01:56:30;;;;;;;5.87;2.80;;;;;;;6.51;84.60;99003.75;5092942;28;20718;-67
2022/01/04 01:58:59;;;;;;;5.90;3.50;;;;;;;6.54;84.95;98995.16;5092584;28;20206;-66
2022/01/04 02:01:26;;;;;;;5.90;3.30;;;;;;;6.55;84.85;98997.63;5092590;28;20225;-59
2022/01/04 02:03:53;;;;;;;7.43;3.20;;;;;;;6.49;84.96;98987.81;5092939;28;20604;-68
2022/01/04 02:06:22;;;;;;;5.43;2.93;;;;;;;6.45;85.30;98988.88;5092798;28;20690;-58
2022/01/04 02:08:48;;;;;;;5.60;2.97;;;;;;;6.35;85.58;98990.31;5092425;28;20206;-59
2022/01/04 02:11:16;;;;;;;3.67;2.60;;;;;;;6.49;84.72;98992.06;5092507;28;20232;-67
2022/01/04 02:13:42;;;;;;;7.63;2.97;;;;;;;6.58;84.42;98996.63;5092343;28;20201;-67
2022/01/04 02:16:11;;;;;;;5.10;2.70;;;;;;;6.62;83.89;98994.72;5092320;28;20217;-67
2022/01/04 08:34:05;;;;;;;5.17;2.10;;;;;;;12.96;56.46;99079.16;5067812;28;21110;-59
2022/01/04 08:36:32;;;;;;;4.50;2.20;;;;;;;13.07;55.73;99073.94;5067837;28;20249;-59
2022/01/04 08:39:00;;;;;;;4.23;2.00;;;;;;;13.02;55.17;99063.25;5067991;28;20689;-59
2022/01/04 11:31:44;;;;;;;8.00;3.00;;;;;;;17.58;42.55;98847.06;5108318;27;20562;-61
